createdAt,value
2019-02-26T00:00:36.615Z,96513.6
2019-02-26T00:05:33.365Z,96493.5
2019-02-26T00:10:31.447Z,96505.7
2019-02-26T00:15:27.045Z,96500.9
2019-02-26T00:20:23.760Z,96486.6
2019-02-26T00:25:20.793Z,96456.5
2019-02-26T00:30:18.605Z,96478.3
2019-02-26T00:35:15.949Z,96478.6
2019-02-26T00:40:12.271Z,96375.9
2019-02-26T00:45:08.703Z,96453
2019-02-26T00:50:07.174Z,96379.5
2019-02-26T00:55:04.552Z,96390.1
2019-02-26T01:00:00.644Z,96443.8
2019-02-26T01:04:56.155Z,96411.1
2019-02-26T01:09:54.673Z,96385.5
2019-02-26T01:14:50.405Z,96315.6
2019-02-26T01:19:47.132Z,96300.9
2019-02-26T01:24:43.777Z,96298.9
2019-02-26T01:29:40.999Z,96286.1
2019-02-26T01:34:38.798Z,96285.4
2019-02-26T01:39:35.611Z,96292.1
2019-02-26T01:44:34.607Z,96287.9
2019-02-26T01:49:29.218Z,96345.1
2019-02-26T01:54:28.074Z,96288.1
2019-02-26T01:59:22.768Z,96271.9
2019-02-26T02:04:19.688Z,96278.1
2019-02-26T02:09:18.538Z,96272.7
2019-02-26T02:14:15.264Z,96251.6
2019-02-26T02:19:15.444Z,96251.8
2019-02-26T02:24:08.890Z,96247.7
2019-02-26T02:29:05.212Z,96245.2
2019-02-26T02:34:02.032Z,96229.9
2019-02-26T02:38:58.885Z,96228.8
2019-02-26T02:43:55.725Z,96216.1
2019-02-26T02:48:52.624Z,96223.6
2019-02-26T02:53:51.001Z,96230.9
2019-02-26T02:58:48.889Z,96231.7
2019-02-26T03:03:45.207Z,96227
2019-02-26T03:08:42.204Z,96234.8
2019-02-26T03:13:37.990Z,96231.7
2019-02-26T03:18:34.683Z,96222.5
2019-02-26T03:23:33.873Z,96221.8
2019-02-26T03:28:28.914Z,96213.5
2019-02-26T03:33:25.489Z,96225.8
2019-02-26T03:38:23.388Z,96219.5
2019-02-26T03:43:19.057Z,96230.9
2019-02-26T03:48:19.148Z,96230.8
2019-02-26T03:53:13.032Z,96234.8
2019-02-26T03:58:08.512Z,96201.7
2019-02-26T04:03:06.543Z,96238.1
2019-02-26T04:08:04.125Z,96230
2019-02-26T04:12:58.757Z,96226.9
2019-02-26T04:17:55.759Z,96216.2
2019-02-26T04:22:53.818Z,96195.9
2019-02-26T04:27:49.739Z,96286
2019-02-26T04:32:48.920Z,96287.7
2019-02-26T04:37:43.887Z,96196.2
2019-02-26T04:42:43.575Z,96264.6
2019-02-26T04:47:40.518Z,96167
2019-02-26T04:57:32.777Z,96161.6
2019-02-26T05:02:30.065Z,96235.3
2019-02-26T05:07:27.040Z,96035.9
2019-02-26T05:12:25.278Z,96220.3
2019-02-26T05:17:23.847Z,96122.3
2019-02-26T05:22:19.767Z,96120.3
2019-02-26T05:27:15.478Z,96123.1
2019-02-26T05:32:11.577Z,96127.6
2019-02-26T05:37:10.956Z,96128.8
2019-02-26T05:42:06.256Z,96139.4
2019-02-26T05:47:02.417Z,96128
2019-02-26T05:52:01.514Z,96134.5
2019-02-26T05:56:56.456Z,96127.3
2019-02-26T06:01:55.405Z,96125.9
2019-02-26T06:06:50.959Z,96098.1
2019-02-26T06:11:49.848Z,96224.1
2019-02-26T06:16:46.116Z,96131.7
2019-02-26T06:21:43.740Z,96112.5
2019-02-26T06:26:40.564Z,96129.1
2019-02-26T06:31:37.106Z,96116.6
2019-02-26T06:36:32.033Z,96130.5
2019-02-26T06:41:29.087Z,96009.5
2019-02-26T06:46:26.888Z,96099.7
2019-02-26T06:51:24.155Z,96181
2019-02-26T06:56:20.150Z,96090.1
2019-02-26T07:01:16.945Z,96090.5
2019-02-26T07:06:13.408Z,96079.3
2019-02-26T07:11:10.564Z,96080.4
2019-02-26T07:16:07.376Z,96072.6
2019-02-26T07:21:04.232Z,96093
2019-02-26T07:26:00.424Z,96085.8
2019-02-26T07:30:57.525Z,96072.8
2019-02-26T07:35:56.869Z,96077.1
2019-02-26T07:40:51.725Z,96060.6
2019-02-26T07:45:48.539Z,96135.8
2019-02-26T07:50:47.802Z,96023.8
2019-02-26T07:55:42.628Z,96005.1
2019-02-26T08:00:40.369Z,95890.6
2019-02-26T08:05:36.496Z,96006.2
2019-02-26T08:10:35.660Z,96027.9
2019-02-26T08:15:32.765Z,96015.3
2019-02-26T08:20:30.198Z,96076.4
2019-02-26T08:25:25.477Z,96142.2
2019-02-26T08:30:24.071Z,96016.9
2019-02-26T08:35:19.403Z,96077.2
2019-02-26T08:40:15.874Z,96084.8
2019-02-26T08:50:11.910Z,96060
2019-02-26T08:55:07.213Z,96048.9
2019-02-26T09:00:03.884Z,96034.7
2019-02-26T09:05:01.556Z,96030.9
2019-02-26T09:09:57.795Z,96026.2
2019-02-26T09:14:54.323Z,96014.5
2019-02-26T09:19:53.189Z,95999
2019-02-26T09:24:49.339Z,96002.2
2019-02-26T09:29:49.525Z,95991.4
2019-02-26T09:34:41.820Z,95920.6
2019-02-26T09:39:39.111Z,95987.8
2019-02-26T09:44:36.041Z,95978.8
2019-02-26T09:49:33.747Z,95992.6
2019-02-26T09:54:29.946Z,95892.3
2019-02-26T09:59:28.855Z,95975
2019-02-26T10:04:24.775Z,95951.9
2019-02-26T10:09:20.856Z,95833.9
2019-02-26T10:14:17.565Z,95920.1
2019-02-26T10:24:11.665Z,95914.2
2019-02-26T10:29:08.975Z,95806.5
2019-02-26T10:34:07.778Z,95896.5
2019-02-26T10:39:02.741Z,95884.2
2019-02-26T10:43:59.457Z,95870.2
2019-02-26T10:48:56.340Z,95862.1
2019-02-26T10:53:53.401Z,95849.7
2019-02-26T10:58:54.674Z,95761.9
2019-02-26T11:03:49.250Z,95822.8
2019-02-26T11:08:44.752Z,95820.3
2019-02-26T11:13:43.271Z,95794.2
2019-02-26T11:18:39.795Z,95774.5
2019-02-26T11:23:36.305Z,95780.4
2019-02-26T11:28:37.834Z,95758.1
2019-02-26T11:33:30.523Z,95728.5
2019-02-26T11:38:27.904Z,95654.9
2019-02-26T11:48:23.302Z,95734
2019-02-26T11:53:18.833Z,95716.8
2019-02-26T11:58:18.469Z,95707.8
2019-02-26T12:03:12.963Z,95718.3
2019-02-26T12:08:11.422Z,95700.6
2019-02-26T12:13:07.282Z,95695.5
2019-02-26T12:18:03.687Z,95756.5
2019-02-26T12:23:00.837Z,95672
2019-02-26T12:28:00.002Z,95663.8
2019-02-26T12:32:55.191Z,95660
2019-02-26T12:37:53.547Z,95638.1
2019-02-26T12:42:49.058Z,95645.5
2019-02-26T12:47:48.610Z,95625.1
2019-02-26T12:52:44.667Z,95631.5
2019-02-26T12:57:40.250Z,95536.9
2019-02-26T13:02:39.757Z,95579.2
2019-02-26T13:07:33.880Z,95650.9
2019-02-26T13:12:32.210Z,95667.9
2019-02-26T13:17:29.343Z,95647
2019-02-26T13:22:25.134Z,95623
2019-02-26T13:27:22.222Z,95562.7
2019-02-26T13:32:21.175Z,95547.8
2019-02-26T13:37:15.679Z,95541.3
2019-02-26T13:42:13.958Z,95538
2019-02-26T13:47:09.645Z,95506.2
2019-02-26T13:52:06.567Z,95501.6
2019-02-26T13:57:04.236Z,95401.8
2019-02-26T14:02:01.212Z,95480.9
2019-02-26T14:06:58.234Z,95486.7
2019-02-26T14:11:55.231Z,95487.6
2019-02-26T14:16:51.950Z,95437
2019-02-26T14:21:49.073Z,95468.3
2019-02-26T14:26:46.280Z,95453.2
2019-02-26T14:31:43.376Z,95502.1
2019-02-26T14:36:40.452Z,95486.5
2019-02-26T14:41:37.109Z,95474.8
2019-02-26T14:46:32.865Z,95478.4
2019-02-26T14:51:29.773Z,95479.8
2019-02-26T14:56:26.440Z,95489.9
2019-02-26T15:01:23.415Z,95396
2019-02-26T15:06:20.239Z,95438
2019-02-26T15:11:17.108Z,95389.4
2019-02-26T15:16:14.064Z,95468.8
2019-02-26T15:21:11.014Z,95381.4
2019-02-26T15:26:08.640Z,95375.2
2019-02-26T15:31:05.613Z,95373.9
2019-02-26T15:36:02.620Z,95425.1
2019-02-26T15:40:59.653Z,95449.1
2019-02-26T15:45:57.707Z,95452.5
2019-02-26T15:50:53.372Z,95391.9
2019-02-26T15:55:50.431Z,95383.7
2019-02-26T16:00:47.447Z,95456.2
2019-02-26T16:05:44.382Z,95389.6
2019-02-26T16:10:41.131Z,95436.9
2019-02-26T16:15:37.911Z,95378.3
2019-02-26T16:20:34.743Z,95365.1
2019-02-26T16:25:31.810Z,95355.8
2019-02-26T16:30:28.913Z,95365.6
2019-02-26T16:35:25.910Z,95391.2
2019-02-26T16:40:23.046Z,95323.2
2019-02-26T16:45:19.964Z,95403.7
2019-02-26T16:50:16.982Z,95410.9
2019-02-26T16:55:16.999Z,95407.8
2019-02-26T17:00:12.821Z,95482.1
2019-02-26T17:05:08.214Z,95434.5
2019-02-26T17:10:05.232Z,95480
2019-02-26T17:15:02.177Z,95517.8
2019-02-26T17:19:59.630Z,95473
2019-02-26T17:24:56.859Z,95378.4
2019-02-26T17:29:53.875Z,95465.5
2019-02-26T17:34:50.978Z,95459.9
2019-02-26T17:39:48.269Z,95492.6
2019-02-26T17:44:45.110Z,95481.5
2019-02-26T17:49:42.138Z,95538.5
2019-02-26T17:54:38.905Z,95440.3
2019-02-26T17:59:35.817Z,95460.9
2019-02-26T18:04:32.870Z,95463
2019-02-26T18:09:29.944Z,95473.2
2019-02-26T18:14:27.434Z,95393.9
2019-02-26T18:19:24.262Z,95467.2
2019-02-26T18:24:21.438Z,95458.7
2019-02-26T18:29:18.221Z,95461
2019-02-26T18:34:15.188Z,95464.1
2019-02-26T18:39:12.279Z,95385.7
2019-02-26T18:44:09.643Z,95450.5
2019-02-26T18:49:06.748Z,95435.2
2019-02-26T18:54:03.437Z,95409.1
2019-02-26T18:59:00.116Z,95420
2019-02-26T19:03:56.908Z,95413.9
2019-02-26T19:08:53.959Z,95427.9
2019-02-26T19:13:50.880Z,95441.3
2019-02-26T19:18:47.943Z,95452.4
2019-02-26T19:23:44.743Z,95459.6
2019-02-26T19:28:41.866Z,95471.1
2019-02-26T19:33:38.357Z,95476.6
2019-02-26T19:38:35.418Z,95475.9
2019-02-26T19:43:32.183Z,95471
2019-02-26T19:48:30.626Z,95479
2019-02-26T19:53:26.746Z,95478.2
2019-02-26T19:58:23.946Z,95469.2
2019-02-26T20:03:19.864Z,95462
2019-02-26T20:08:16.880Z,95453
2019-02-26T20:13:14.015Z,95460.1
2019-02-26T20:18:19.998Z,95457.8
2019-02-26T20:23:07.992Z,95453.7
2019-02-26T20:28:05.641Z,95455
2019-02-26T20:33:03.885Z,95445.6
2019-02-26T20:37:59.334Z,95367.4
2019-02-26T20:42:56.035Z,95447.6
2019-02-26T20:47:53.133Z,95453.1
2019-02-26T20:52:50.657Z,95380.6
2019-02-26T20:57:47.673Z,95463.1
2019-02-26T21:02:44.492Z,95443.5
2019-02-26T21:07:41.325Z,95456.7
2019-02-26T21:12:39.357Z,95347.5
2019-02-26T21:17:35.929Z,95460
2019-02-26T21:22:33.028Z,95460.4
2019-02-26T21:27:30.801Z,95378.9
2019-02-26T21:32:28.425Z,95493.3
2019-02-26T21:37:25.342Z,95461.3
2019-02-26T21:42:22.413Z,95455.9
2019-02-26T21:47:20.273Z,95427.2
2019-02-26T21:52:17.381Z,95452.2
2019-02-26T21:57:14.539Z,95438.1
2019-02-26T22:02:11.803Z,95441.3
2019-02-26T22:07:08.358Z,95443.1
2019-02-26T22:12:05.003Z,95390.6
2019-02-26T22:17:01.870Z,95453.8
2019-02-26T22:21:59.141Z,95458
2019-02-26T22:26:59.092Z,95454
2019-02-26T22:31:53.123Z,95450.8
2019-02-26T22:36:50.360Z,95442.3
2019-02-26T22:41:47.515Z,95436.6
2019-02-26T22:46:44.763Z,95448.8
2019-02-26T22:51:41.865Z,95457.9
2019-02-26T22:56:39.068Z,95447.7
2019-02-26T23:01:37.126Z,95450.9
2019-02-26T23:06:33.246Z,95449.8
2019-02-26T23:11:32.425Z,95376.8
2019-02-26T23:16:27.803Z,95448.9
2019-02-26T23:21:24.761Z,95446.4
2019-02-26T23:26:21.835Z,95418
2019-02-26T23:31:18.922Z,95437.7
2019-02-26T23:36:15.970Z,95445.2
2019-02-26T23:41:13.024Z,95457.1
2019-02-26T23:46:09.693Z,95465
2019-02-26T23:51:06.956Z,95474.2
2019-02-26T23:56:03.630Z,95474.5
